Time;durP1;ratioP1;P1;durP2;ratioP2;P2;SDS_P1;SDS_P2;PMS_P1;PMS_P2;Temp;Humidity;BMP_temperature;BMP_pressure;BME280_temperature;BME280_humidity;BME280_pressure;Samples;Min_cycle;Max_cycle;Signal;HPM_P1;HPM_P2
2021/07/06 00:01:36;;;;;;;2.85;2.22;;;17.50;99.90;;;;;;5048225;28;20055;-81
2021/07/06 00:04:01;;;;;;;3.38;1.75;;;17.60;99.90;;;;;;5047946;28;20032;-82
2021/07/06 00:06:27;;;;;;;3.63;1.90;;;17.60;99.90;;;;;;5048054;28;20029;-82
2021/07/06 00:08:52;;;;;;;2.92;1.95;;;17.60;99.90;;;;;;5047663;28;20096;-82
2021/07/06 00:11:18;;;;;;;4.53;2.13;;;17.60;99.90;;;;;;5047936;28;20037;-81
2021/07/06 00:13:44;;;;;;;3.15;1.90;;;17.60;99.90;;;;;;5065519;28;20025;-82
2021/07/06 00:16:09;;;;;;;3.95;1.88;;;17.60;99.90;;;;;;5047738;28;20033;-82
2021/07/06 00:18:35;;;;;;;2.90;2.08;;;17.60;99.90;;;;;;5065294;28;20086;-82
2021/07/06 00:21:01;;;;;;;3.30;1.75;;;17.60;99.90;;;;;;5031375;28;20031;-82
2021/07/06 00:23:28;;;;;;;3.75;1.77;;;17.60;99.90;;;;;;5047608;28;20055;-83
2021/07/06 00:25:54;;;;;;;3.63;1.83;;;17.60;99.90;;;;;;5047362;28;20048;-82
2021/07/06 00:28:20;;;;;;;3.97;1.80;;;17.60;99.90;;;;;;5047350;28;20031;-82
2021/07/06 00:30:45;;;;;;;4.53;1.73;;;17.70;99.90;;;;;;5065597;28;20040;-82
2021/07/06 00:33:11;;;;;;;2.55;1.33;;;17.70;99.90;;;;;;5047452;28;20025;-82
2021/07/06 00:35:37;;;;;;;3.75;1.20;;;17.60;99.90;;;;;;5047703;28;20047;-82
2021/07/06 00:38:03;;;;;;;2.25;1.00;;;17.70;99.90;;;;;;5047431;28;20025;-82
2021/07/06 00:40:28;;;;;;;1.60;0.70;;;17.70;99.90;;;;;;5031033;28;20025;-82
2021/07/06 00:42:59;;;;;;;1.33;0.60;;;17.70;99.90;;;;;;5046865;28;20120;-82
2021/07/06 00:45:26;;;;;;;2.13;0.40;;;17.80;99.90;;;;;;5047413;28;20045;-82
2021/07/06 00:47:52;;;;;;;1.30;0.50;;;17.80;99.90;;;;;;5051751;23;20119;-83
2021/07/06 00:50:21;;;;;;;1.33;0.50;;;17.80;99.90;;;;;;5027741;28;20033;-82
2021/07/06 00:52:47;;;;;;;1.08;0.50;;;17.90;99.90;;;;;;5045592;28;20033;-82
2021/07/06 00:55:13;;;;;;;1.45;0.50;;;17.90;99.90;;;;;;5043991;28;20071;-82
2021/07/06 00:57:39;;;;;;;0.90;0.43;;;17.90;99.90;;;;;;5027338;28;20025;-82
2021/07/06 01:00:09;;;;;;;1.45;0.50;;;17.90;99.90;;;;;;5027509;28;20043;-82
2021/07/06 01:02:35;;;;;;;1.48;0.50;;;18.00;99.90;;;;;;5027627;28;20041;-82
2021/07/06 01:05:01;;;;;;;1.13;0.50;;;18.00;99.90;;;;;;5045186;28;20033;-82
2021/07/06 01:07:27;;;;;;;1.13;0.50;;;18.00;99.90;;;;;;5043986;28;20068;-81
2021/07/06 01:09:53;;;;;;;2.42;0.50;;;18.00;99.90;;;;;;5027395;28;20038;-82
2021/07/06 01:12:18;;;;;;;1.10;0.70;;;18.00;99.90;;;;;;5027569;28;20036;-82
2021/07/06 01:14:44;;;;;;;1.67;0.40;;;17.90;99.90;;;;;;5027536;28;20034;-81
2021/07/06 01:17:10;;;;;;;0.73;0.40;;;17.90;99.90;;;;;;5043727;28;20037;-82
2021/07/06 01:19:37;;;;;;;1.27;0.40;;;18.00;99.90;;;;;;5043800;28;20033;-82
2021/07/06 01:22:05;;;;;;;1.25;0.32;;;18.00;99.90;;;;;;5044045;28;20093;-82
2021/07/06 01:24:31;;;;;;;0.80;0.30;;;18.00;99.90;;;;;;5027492;28;20041;-82
2021/07/06 01:26:57;;;;;;;0.93;0.20;;;18.00;99.90;;;;;;5043670;28;20038;-82
2021/07/06 01:29:23;;;;;;;2.00;0.20;;;18.00;99.90;;;;;;5044100;28;20117;-81
2021/07/06 01:31:52;;;;;;;0.95;0.20;;;18.00;99.90;;;;;;5030876;28;20064;-82
2021/07/06 01:34:17;;;;;;;0.77;0.20;;;18.00;99.90;;;;;;5047549;28;20037;-81
2021/07/06 01:36:45;;;;;;;1.20;0.30;;;18.00;99.90;;;;;;5047469;28;20030;-82
2021/07/06 01:39:11;;;;;;;1.05;0.20;;;18.00;99.90;;;;;;5048471;28;20108;-81
2021/07/06 01:41:40;;;;;;;1.10;0.20;;;18.00;99.90;;;;;;5030900;28;20254;-81
2021/07/06 01:44:27;;;;;;;1.58;0.20;;;18.00;99.90;;;;;;5030571;28;20044;-82
2021/07/06 01:46:53;;;;;;;0.65;0.22;;;18.00;99.90;;;;;;5047116;28;20045;-80
2021/07/06 01:49:19;;;;;;;0.70;0.20;;;17.90;99.90;;;;;;5030464;28;20080;-81
2021/07/06 01:51:46;;;;;;;0.75;0.28;;;17.90;99.90;;;;;;5047327;28;20037;-82
2021/07/06 01:54:13;;;;;;;0.40;0.20;;;17.90;99.90;;;;;;5030603;28;20032;-81
2021/07/06 01:56:40;;;;;;;0.40;0.20;;;17.80;99.90;;;;;;5047162;28;20092;-82
2021/07/06 01:59:06;;;;;;;0.45;0.20;;;17.80;99.90;;;;;;5046847;28;20029;-82
2021/07/06 02:01:33;;;;;;;0.63;0.20;;;17.70;99.90;;;;;;5047281;28;20030;-82
2021/07/06 02:03:59;;;;;;;0.38;0.20;;;17.70;99.90;;;;;;5047030;28;20515;-82
2021/07/06 02:06:25;;;;;;;1.15;0.10;;;17.60;99.90;;;;;;5048087;28;20049;-81
2021/07/06 02:08:50;;;;;;;0.40;0.20;;;17.60;99.90;;;;;;5030324;28;20053;-82
2021/07/06 02:11:16;;;;;;;1.00;0.20;;;17.60;99.90;;;;;;5047040;28;20029;-81
2021/07/06 02:13:42;;;;;;;0.30;0.20;;;17.60;99.90;;;;;;5030197;28;20034;-81
2021/07/06 02:16:10;;;;;;;1.33;0.10;;;17.60;99.90;;;;;;5046685;28;20540;-81
2021/07/06 02:18:35;;;;;;;0.90;0.10;;;17.60;99.90;;;;;;5046738;28;20088;-81
2021/07/06 02:21:01;;;;;;;0.30;0.10;;;17.50;99.90;;;;;;5030537;28;20041;-82
2021/07/06 02:23:29;;;;;;;0.32;0.20;;;17.60;99.90;;;;;;5046951;28;20126;-82
2021/07/06 02:25:58;;;;;;;1.23;0.20;;;17.50;99.90;;;;;;5046599;28;20049;-81
2021/07/06 02:28:23;;;;;;;0.60;0.20;;;17.50;99.90;;;;;;5046526;28;20452;-82
2021/07/06 02:30:50;;;;;;;2.42;0.20;;;17.50;99.90;;;;;;5029879;28;20038;-81
2021/07/06 02:33:17;;;;;;;1.67;0.20;;;17.50;99.90;;;;;;5046646;28;20029;-82
2021/07/06 02:35:42;;;;;;;0.20;0.15;;;17.50;99.90;;;;;;5029887;28;20033;-81
2021/07/06 02:38:08;;;;;;;0.63;0.20;;;17.50;99.90;;;;;;5046271;28;20028;-82
2021/07/06 02:40:34;;;;;;;0.70;0.20;;;17.40;99.90;;;;;;5029774;28;20033;-81
2021/07/06 02:43:01;;;;;;;0.85;0.20;;;17.40;99.90;;;;;;5029748;28;20076;-82
2021/07/06 02:45:28;;;;;;;0.30;0.13;;;17.40;99.90;;;;;;5047391;28;20038;-81
2021/07/06 02:47:55;;;;;;;1.52;0.20;;;17.40;99.90;;;;;;5045485;28;20045;-81
2021/07/06 02:50:23;;;;;;;0.40;0.20;;;17.40;99.90;;;;;;5046027;28;20037;-82
2021/07/06 02:52:49;;;;;;;0.40;0.20;;;17.40;99.90;;;;;;5046032;28;20091;-81
2021/07/06 02:55:15;;;;;;;0.45;0.20;;;17.40;99.90;;;;;;5045790;28;20033;-82
2021/07/06 02:57:41;;;;;;;0.60;0.20;;;17.30;99.90;;;;;;5029170;28;20021;-82
2021/07/06 03:00:12;;;;;;;0.30;0.20;;;17.30;99.90;;;;;;5045789;28;20366;-81
2021/07/06 03:02:39;;;;;;;0.85;0.20;;;17.30;99.90;;;;;;5029287;28;20033;-82
2021/07/06 03:05:07;;;;;;;0.43;0.20;;;17.20;99.90;;;;;;5046833;28;20033;-81
2021/07/06 03:07:33;;;;;;;0.40;0.20;;;17.20;99.90;;;;;;5045531;28;20116;-81
2021/07/06 03:10:01;;;;;;;0.77;0.20;;;17.20;99.90;;;;;;5045687;28;20057;-81
2021/07/06 03:12:27;;;;;;;0.63;0.20;;;17.20;99.90;;;;;;5029101;28;20029;-81
2021/07/06 03:14:53;;;;;;;1.35;0.20;;;17.20;99.90;;;;;;5028998;28;20060;-82
2021/07/06 03:17:18;;;;;;;0.70;0.20;;;17.20;99.90;;;;;;5028658;28;20082;-82
2021/07/06 03:19:44;;;;;;;1.27;0.30;;;17.20;99.90;;;;;;5045331;28;20049;-83
2021/07/06 03:22:09;;;;;;;0.45;0.20;;;17.20;99.90;;;;;;5029051;28;20032;-81
2021/07/06 03:24:35;;;;;;;2.10;0.20;;;17.10;99.90;;;;;;5045346;28;20048;-82
2021/07/06 03:27:00;;;;;;;0.45;0.20;;;17.10;99.90;;;;;;5028650;28;20037;-82
2021/07/06 03:29:26;;;;;;;3.50;0.40;;;17.10;99.90;;;;;;5028756;28;20030;-81
2021/07/06 03:31:51;;;;;;;0.50;0.20;;;17.10;99.90;;;;;;5028816;28;20029;-82
2021/07/06 03:34:17;;;;;;;1.00;0.20;;;17.20;99.90;;;;;;5045096;28;20060;-82
2021/07/06 03:36:43;;;;;;;0.65;0.20;;;17.20;99.90;;;;;;5028163;28;20044;-82
2021/07/06 03:39:08;;;;;;;0.73;0.20;;;17.20;99.90;;;;;;5045027;28;20095;-81
2021/07/06 03:41:34;;;;;;;1.05;0.20;;;17.20;99.90;;;;;;5028574;28;20045;-81
2021/07/06 03:44:00;;;;;;;1.67;0.20;;;17.20;99.90;;;;;;5044800;28;20025;-82
2021/07/06 03:46:45;;;;;;;0.50;0.20;;;17.20;99.90;;;;;;5043948;28;20052;-82
2021/07/06 03:49:11;;;;;;;1.75;0.30;;;17.30;99.90;;;;;;5004822;28;20065;-81
2021/07/06 03:51:37;;;;;;;1.35;0.30;;;17.40;99.90;;;;;;5009961;28;20152;-81
2021/07/06 03:54:02;;;;;;;2.28;0.40;;;17.40;99.90;;;;;;5010060;28;20034;-81
2021/07/06 03:56:28;;;;;;;0.50;0.20;;;17.40;99.90;;;;;;5042992;28;20489;-81
2021/07/06 03:58:53;;;;;;;1.83;0.30;;;17.40;99.90;;;;;;5043168;28;20033;-81
2021/07/06 04:01:19;;;;;;;1.45;0.20;;;17.50;99.90;;;;;;5026570;28;20549;-81
2021/07/06 04:03:45;;;;;;;0.88;0.20;;;17.50;99.90;;;;;;5009926;28;20033;-82
2021/07/06 04:06:10;;;;;;;0.57;0.30;;;17.50;99.90;;;;;;5009921;28;20083;-81
2021/07/06 04:08:36;;;;;;;1.23;0.30;;;17.50;99.90;;;;;;5009994;28;20083;-81
2021/07/06 04:11:01;;;;;;;1.00;0.20;;;17.50;99.90;;;;;;5026443;28;20029;-81
2021/07/06 04:13:27;;;;;;;1.52;0.28;;;17.60;99.90;;;;;;5009953;28;20135;-81
2021/07/06 04:15:53;;;;;;;1.45;0.30;;;17.60;99.90;;;;;;5026178;28;20040;-82
2021/07/06 04:18:18;;;;;;;1.63;0.47;;;17.60;99.90;;;;;;5026191;28;20030;-83
2021/07/06 04:20:44;;;;;;;1.52;0.40;;;17.60;99.90;;;;;;5010048;28;20069;-81
2021/07/06 04:23:10;;;;;;;0.88;0.30;;;17.70;99.90;;;;;;5042885;28;20519;-82
2021/07/06 04:25:36;;;;;;;1.75;0.30;;;17.70;99.90;;;;;;5027995;28;20049;-81
2021/07/06 04:28:02;;;;;;;0.85;0.30;;;17.70;99.90;;;;;;5043729;28;20026;-81
2021/07/06 04:30:31;;;;;;;0.90;0.40;;;17.70;99.90;;;;;;5027403;28;20033;-81
2021/07/06 04:32:56;;;;;;;1.90;0.30;;;17.70;99.90;;;;;;5043879;28;20053;-81
2021/07/06 04:35:22;;;;;;;1.20;0.30;;;17.70;99.90;;;;;;5027225;28;20041;-82
2021/07/06 04:37:49;;;;;;;2.00;0.40;;;17.80;99.90;;;;;;5043506;28;20052;-81
2021/07/06 04:40:16;;;;;;;1.55;0.30;;;17.80;99.90;;;;;;5027232;28;20073;-81
2021/07/06 04:42:41;;;;;;;1.63;0.40;;;17.80;99.90;;;;;;5043561;28;20052;-81
2021/07/06 04:45:07;;;;;;;2.65;0.40;;;17.90;99.90;;;;;;5043356;28;20039;-82
2021/07/06 04:47:33;;;;;;;1.40;0.32;;;18.00;99.90;;;;;;5024056;28;20037;-81
2021/07/06 04:49:59;;;;;;;3.40;0.45;;;18.00;99.90;;;;;;5026153;28;20095;-81
2021/07/06 04:52:25;;;;;;;0.93;0.30;;;18.10;99.90;;;;;;5043428;28;20034;-81
2021/07/06 04:54:50;;;;;;;1.27;0.30;;;18.20;99.90;;;;;;5025075;28;20052;-81
2021/07/06 04:57:21;;;;;;;1.00;0.30;;;18.20;99.90;;;;;;5042994;28;20029;-81
2021/07/06 04:59:50;;;;;;;1.98;0.40;;;18.20;99.90;;;;;;5026817;28;20029;-83
2021/07/06 05:02:15;;;;;;;0.63;0.25;;;18.30;99.90;;;;;;5042969;28;20061;-81
2021/07/06 05:04:41;;;;;;;1.13;0.30;;;18.30;99.90;;;;;;5029327;28;20042;-81
2021/07/06 05:07:07;;;;;;;2.08;0.30;;;18.30;99.90;;;;;;5030488;28;20163;-82
2021/07/06 05:09:35;;;;;;;1.33;0.40;;;18.30;99.90;;;;;;5048202;28;20030;-81
2021/07/06 05:12:00;;;;;;;2.63;0.30;;;18.40;99.90;;;;;;5046893;28;20038;-81
2021/07/06 05:14:26;;;;;;;2.92;0.28;;;18.40;99.90;;;;;;5000240;28;20042;-81
2021/07/06 05:16:52;;;;;;;1.02;0.30;;;18.40;99.90;;;;;;5016405;28;20100;-81
2021/07/06 05:19:17;;;;;;;0.73;0.30;;;18.40;99.90;;;;;;5046219;28;20446;-81
2021/07/06 05:21:43;;;;;;;0.68;0.30;;;18.40;99.90;;;;;;5047828;28;20029;-81
2021/07/06 05:24:09;;;;;;;2.28;0.30;;;18.40;99.90;;;;;;5030330;28;20025;-81
2021/07/06 05:26:35;;;;;;;2.13;0.40;;;18.40;99.90;;;;;;5047209;28;20034;-80
2021/07/06 05:29:01;;;;;;;0.73;0.30;;;18.50;99.90;;;;;;5046562;28;20030;-82
2021/07/06 05:31:27;;;;;;;2.38;0.30;;;18.50;99.90;;;;;;5030240;28;20033;-81
2021/07/06 05:33:53;;;;;;;0.80;0.20;;;18.50;99.90;;;;;;5029775;28;20040;-82
2021/07/06 05:36:19;;;;;;;1.15;0.30;;;18.60;99.90;;;;;;5041773;28;20044;-81
2021/07/06 05:38:45;;;;;;;1.52;0.20;;;18.60;99.90;;;;;;5046477;28;20053;-82
2021/07/06 05:41:12;;;;;;;0.57;0.20;;;18.70;99.90;;;;;;5029970;28;20033;-83
2021/07/06 05:43:38;;;;;;;1.70;0.40;;;18.70;99.90;;;;;;5046547;28;20021;-81
2021/07/06 05:46:04;;;;;;;1.67;0.30;;;18.80;99.90;;;;;;5046288;28;20492;-81
2021/07/06 05:48:29;;;;;;;1.13;0.30;;;18.90;99.90;;;;;;5045598;28;20050;-80
2021/07/06 05:50:55;;;;;;;1.92;0.30;;;18.90;99.90;;;;;;5029894;28;20036;-82
2021/07/06 05:53:21;;;;;;;0.73;0.20;;;19.00;99.90;;;;;;5047658;28;20052;-81
2021/07/06 05:55:46;;;;;;;2.38;0.20;;;18.90;99.90;;;;;;5046030;28;20033;-82
2021/07/06 05:58:12;;;;;;;1.77;0.30;;;19.00;99.90;;;;;;5047318;28;20033;-82
2021/07/06 06:00:38;;;;;;;2.80;0.28;;;19.00;99.90;;;;;;5029930;28;20462;-82
2021/07/06 06:03:10;;;;;;;1.02;0.25;;;18.90;99.90;;;;;;5047358;28;20036;-82
2021/07/06 06:05:36;;;;;;;3.05;0.30;;;18.90;99.90;;;;;;5029538;28;20041;-82
2021/07/06 06:08:02;;;;;;;0.80;0.20;;;19.00;99.90;;;;;;5029424;28;20038;-81
2021/07/06 06:10:28;;;;;;;1.60;0.20;;;18.90;99.90;;;;;;5029794;28;20045;-81
2021/07/06 06:12:53;;;;;;;0.70;0.20;;;18.90;99.90;;;;;;5046030;28;20029;-82
2021/07/06 06:15:19;;;;;;;1.98;0.20;;;18.90;99.90;;;;;;5029132;28;20055;-81
2021/07/06 06:17:44;;;;;;;1.60;0.28;;;18.90;99.90;;;;;;5045249;28;20481;-81
2021/07/06 06:20:11;;;;;;;1.98;0.30;;;18.90;99.90;;;;;;5029282;28;20060;-81
2021/07/06 06:22:37;;;;;;;1.95;0.30;;;18.80;99.90;;;;;;5029319;28;20033;-81
2021/07/06 06:25:03;;;;;;;1.08;0.30;;;18.80;99.90;;;;;;5046004;28;20037;-81
2021/07/06 06:27:28;;;;;;;1.00;0.30;;;18.90;99.90;;;;;;5028999;28;20064;-81
2021/07/06 06:29:54;;;;;;;1.17;0.30;;;18.90;99.90;;;;;;5045820;28;20037;-81
2021/07/06 06:32:23;;;;;;;2.22;0.22;;;18.90;99.90;;;;;;5029070;28;20049;-81
2021/07/06 06:34:48;;;;;;;1.02;0.22;;;18.90;99.90;;;;;;5029132;28;20037;-82
2021/07/06 06:37:14;;;;;;;1.63;0.30;;;18.90;99.90;;;;;;5045657;28;20030;-82
2021/07/06 06:39:40;;;;;;;0.65;0.20;;;18.90;99.90;;;;;;5046825;28;20532;-82
2021/07/06 06:42:06;;;;;;;1.05;0.30;;;18.90;99.90;;;;;;5028798;28;20101;-81
2021/07/06 06:44:32;;;;;;;1.58;0.30;;;19.00;99.90;;;;;;5028691;28;20099;-81
2021/07/06 06:46:57;;;;;;;1.77;0.20;;;18.90;99.90;;;;;;5046221;28;20125;-81
2021/07/06 06:49:23;;;;;;;1.00;0.30;;;19.00;99.90;;;;;;5045084;28;20045;-82
2021/07/06 06:51:49;;;;;;;1.45;0.20;;;18.90;99.90;;;;;;5045368;28;20069;-82
2021/07/06 06:54:14;;;;;;;1.02;0.30;;;19.00;99.90;;;;;;5045094;28;20107;-81
2021/07/06 06:56:42;;;;;;;0.80;0.30;;;19.00;99.90;;;;;;5028465;28;20033;-81
2021/07/06 06:59:08;;;;;;;1.55;0.30;;;19.10;99.90;;;;;;5045084;28;20041;-81
2021/07/06 07:01:34;;;;;;;0.95;0.25;;;19.10;99.90;;;;;;5028334;28;20059;-81
2021/07/06 07:04:01;;;;;;;0.88;0.22;;;19.20;99.90;;;;;;5044950;28;20025;-81
2021/07/06 07:06:27;;;;;;;2.40;0.25;;;19.20;99.90;;;;;;5044810;28;20133;-80
2021/07/06 07:08:52;;;;;;;1.20;0.30;;;19.20;99.90;;;;;;5044652;28;20064;-81
2021/07/06 07:11:18;;;;;;;2.13;0.30;;;19.30;99.90;;;;;;5028359;28;20033;-82
2021/07/06 07:13:43;;;;;;;2.75;0.30;;;19.40;99.90;;;;;;5028239;28;20056;-82
2021/07/06 07:16:09;;;;;;;1.10;0.20;;;19.40;99.90;;;;;;5044502;28;20076;-82
2021/07/06 07:18:35;;;;;;;0.85;0.20;;;19.40;99.90;;;;;;5027701;28;20056;-83
2021/07/06 07:21:00;;;;;;;1.17;0.20;;;19.40;99.90;;;;;;5044519;28;20512;-82
2021/07/06 07:23:26;;;;;;;1.05;0.20;;;19.50;99.90;;;;;;5044585;28;20037;-82
2021/07/06 07:25:52;;;;;;;0.75;0.20;;;19.60;99.90;;;;;;5044634;28;20052;-82
2021/07/06 07:28:17;;;;;;;0.90;0.30;;;19.70;99.90;;;;;;5044699;28;20036;-80
2021/07/06 07:30:43;;;;;;;2.50;0.20;;;19.70;99.90;;;;;;5028143;28;20212;-81
2021/07/06 07:33:09;;;;;;;1.15;0.30;;;19.70;99.90;;;;;;5044510;28;20033;-81
2021/07/06 07:35:34;;;;;;;1.05;0.30;;;19.80;99.90;;;;;;5044615;28;20128;-81
2021/07/06 07:38:00;;;;;;;1.05;0.20;;;19.90;99.90;;;;;;5027700;28;20029;-81
2021/07/06 07:40:25;;;;;;;1.85;0.20;;;19.90;99.90;;;;;;5045753;28;20036;-82
2021/07/06 07:42:51;;;;;;;1.48;0.20;;;19.90;99.90;;;;;;5028017;28;20041;-81
2021/07/06 07:45:17;;;;;;;1.70;0.30;;;20.00;99.90;;;;;;5045516;28;20088;-81
2021/07/06 07:47:43;;;;;;;0.60;0.13;;;20.00;99.90;;;;;;5027543;28;20040;-81
2021/07/06 07:50:09;;;;;;;0.35;0.10;;;20.00;99.90;;;;;;5044388;28;20041;-81
2021/07/06 07:52:36;;;;;;;0.50;0.20;;;20.10;99.90;;;;;;5045641;28;20053;-81
2021/07/06 07:55:03;;;;;;;0.68;0.20;;;20.10;99.90;;;;;;5027492;28;20121;-82
2021/07/06 07:57:30;;;;;;;0.70;0.20;;;20.10;99.90;;;;;;5027592;28;20060;-81
2021/07/06 07:59:56;;;;;;;0.40;0.10;;;20.20;99.90;;;;;;5044341;28;20033;-82
2021/07/06 08:02:23;;;;;;;0.65;0.10;;;20.20;99.90;;;;;;5027726;28;20037;-81
2021/07/06 08:04:49;;;;;;;0.70;0.20;;;20.30;99.90;;;;;;5043940;28;20068;-81
2021/07/06 08:07:14;;;;;;;0.40;0.10;;;20.30;99.90;;;;;;5045131;28;20034;-81
2021/07/06 08:09:40;;;;;;;3.28;0.20;;;20.30;99.90;;;;;;5027546;28;20036;-82
2021/07/06 08:12:06;;;;;;;0.55;0.10;;;20.40;99.90;;;;;;5027456;28;20025;-82
2021/07/06 08:14:32;;;;;;;1.85;0.20;;;20.40;99.90;;;;;;5027403;28;20164;-82
2021/07/06 08:16:58;;;;;;;1.98;0.20;;;20.30;99.90;;;;;;5027154;28;20076;-81
2021/07/06 08:19:25;;;;;;;0.30;0.10;;;20.50;99.90;;;;;;5044019;28;20037;-81
2021/07/06 08:21:51;;;;;;;3.10;0.10;;;20.60;99.90;;;;;;5043949;28;20400;-82
2021/07/06 08:24:17;;;;;;;0.43;0.10;;;20.50;99.90;;;;;;5010853;28;20094;-81
2021/07/06 08:26:44;;;;;;;0.40;0.10;;;20.60;99.90;;;;;;5043635;28;20056;-82
2021/07/06 08:29:10;;;;;;;1.50;0.20;;;20.50;99.90;;;;;;5045020;28;20025;-81
2021/07/06 08:31:35;;;;;;;0.60;0.17;;;20.60;99.90;;;;;;5027296;28;20101;-82
2021/07/06 08:34:01;;;;;;;1.10;0.10;;;20.60;99.90;;;;;;5043677;28;20033;-81
2021/07/06 08:36:32;;;;;;;0.80;0.15;;;20.70;99.90;;;;;;5044669;28;20044;-82
2021/07/06 08:38:58;;;;;;;0.20;0.10;;;20.80;99.90;;;;;;5043215;28;20033;-81
2021/07/06 08:41:24;;;;;;;0.57;0.20;;;20.80;99.90;;;;;;5043574;28;20120;-81
2021/07/06 08:43:50;;;;;;;0.40;0.10;;;20.80;99.90;;;;;;5026992;28;20037;-81
2021/07/06 08:46:37;;;;;;;0.70;0.10;;;20.80;99.90;;;;;;5043184;28;20051;-81
2021/07/06 08:49:03;;;;;;;0.75;0.10;;;21.10;99.90;;;;;;4986178;28;20122;-81
2021/07/06 08:51:31;;;;;;;0.85;0.10;;;21.60;99.90;;;;;;5002819;28;20108;-81
2021/07/06 08:53:57;;;;;;;0.40;0.10;;;22.00;99.90;;;;;;4986485;28;20134;-81
2021/07/06 08:56:22;;;;;;;0.80;0.10;;;22.20;99.90;;;;;;5002824;28;20034;-81
2021/07/06 08:58:48;;;;;;;0.85;0.17;;;22.30;99.90;;;;;;4986537;28;20034;-82
2021/07/06 09:01:14;;;;;;;0.68;0.10;;;22.50;99.90;;;;;;4986619;28;20125;-82
2021/07/06 09:03:54;;;;;;;1.23;0.10;;;22.40;99.90;;;;;;5002822;28;20109;-82
2021/07/06 09:06:24;;;;;;;0.30;0.10;;;22.50;99.90;;;;;;5002813;28;20639;-80
2021/07/06 09:08:53;;;;;;;;;;;22.20;99.90;;;;;;4986686;28;20034;-81
2021/07/06 09:11:20;;;;;;;1.13;0.10;;;21.60;99.90;;;;;;5002956;28;19910;-82
2021/07/06 09:13:46;;;;;;;0.65;0.30;;;21.10;99.90;;;;;;4970376;28;20046;-81
2021/07/06 09:16:22;;;;;;;0.70;0.10;;;21.30;99.90;;;;;;5002480;28;20144;-83
2021/07/06 09:18:49;;;;;;;1.35;0.10;;;21.30;99.90;;;;;;4986356;28;20077;-83
2021/07/06 09:21:16;;;;;;;1.55;0.10;;;21.30;99.90;;;;;;5002781;28;20046;-81
2021/07/06 09:23:46;;;;;;;0.77;0.10;;;21.30;99.90;;;;;;4986399;28;20060;-82
2021/07/06 09:26:25;;;;;;;1.85;0.10;;;21.70;99.90;;;;;;4997272;28;20050;-80
2021/07/06 09:28:53;;;;;;;0.73;0.10;;;21.70;99.90;;;;;;5023248;28;20026;-81
2021/07/06 09:31:36;;;;;;;0.93;0.10;;;21.60;99.90;;;;;;5023512;28;20450;-82
2021/07/06 09:34:07;;;;;;;0.68;0.10;;;21.60;99.90;;;;;;5023176;28;20069;-81
2021/07/06 09:36:39;;;;;;;3.50;0.10;;;21.70;99.90;;;;;;5024523;28;20042;-83
2021/07/06 09:39:09;;;;;;;0.90;0.10;;;22.10;99.90;;;;;;5023023;28;20038;-80
2021/07/06 09:41:36;;;;;;;0.60;0.10;;;22.20;99.90;;;;;;5006727;28;20042;-81
2021/07/06 09:44:20;;;;;;;1.25;0.00;;;22.30;99.90;;;;;;5023354;28;20034;-80
2021/07/06 09:47:10;;;;;;;0.65;0.10;;;22.00;99.90;;;;;;5006582;28;20046;-82
2021/07/06 09:49:41;;;;;;;0.47;0.25;;;22.10;99.90;;;;;;5017815;28;20057;-80
2021/07/06 09:52:16;;;;;;;0.50;0.10;;;21.90;99.90;;;;;;5027541;28;20034;-80
2021/07/06 09:54:49;;;;;;;1.45;0.10;;;21.80;99.90;;;;;;5035068;28;20114;-80
2021/07/06 09:57:32;;;;;;;3.85;0.10;;;22.70;99.90;;;;;;5029723;28;20465;-83
2021/07/06 09:59:57;;;;;;;0.45;0.10;;;23.30;99.90;;;;;;5047802;28;20049;-82
2021/07/06 10:02:25;;;;;;;0.22;0.00;;;23.50;99.90;;;;;;5046217;28;20101;-80
2021/07/06 10:04:52;;;;;;;0.45;0.10;;;23.60;99.90;;;;;;5029639;28;20033;-82
2021/07/06 10:07:25;;;;;;;0.80;0.10;;;23.10;99.90;;;;;;5047252;28;20033;-81
2021/07/06 10:09:52;;;;;;;0.60;0.10;;;23.20;99.90;;;;;;5047408;28;20025;-81
2021/07/06 10:12:19;;;;;;;0.95;0.10;;;23.60;99.90;;;;;;5029543;28;20030;-83
2021/07/06 10:14:46;;;;;;;0.30;0.10;;;23.60;99.90;;;;;;5029510;28;20064;-81
2021/07/06 10:17:12;;;;;;;1.33;0.10;;;23.20;99.90;;;;;;5046900;28;20038;-81
2021/07/06 10:19:42;;;;;;;1.67;0.10;;;23.60;99.90;;;;;;5046084;28;20141;-80
2021/07/06 10:22:09;;;;;;;3.03;0.10;;;23.70;99.90;;;;;;5029250;28;20030;-81
2021/07/06 10:24:37;;;;;;;2.85;0.10;;;23.40;99.90;;;;;;5029360;28;20037;-80
2021/07/06 10:27:06;;;;;;;1.38;0.10;;;22.90;99.90;;;;;;5028972;28;20052;-81
2021/07/06 10:29:33;;;;;;;3.67;0.00;;;22.80;99.90;;;;;;5047178;28;20097;-81
2021/07/06 10:31:58;;;;;;;3.13;0.10;;;22.90;99.90;;;;;;5045557;28;20049;-83
2021/07/06 10:34:26;;;;;;;2.90;0.10;;;22.90;99.90;;;;;;5029197;28;20029;-82
2021/07/06 10:36:52;;;;;;;1.52;0.10;;;23.10;99.90;;;;;;5045598;28;20452;-83
2021/07/06 10:39:43;;;;;;;1.50;0.10;;;23.30;99.90;;;;;;5046906;28;20029;-82
2021/07/06 10:42:09;;;;;;;3.38;0.10;;;22.90;99.90;;;;;;5028763;28;20029;-82
2021/07/06 10:44:35;;;;;;;0.75;0.10;;;22.90;99.90;;;;;;5029196;28;20033;-82
2021/07/06 10:47:02;;;;;;;0.55;0.10;;;22.80;99.90;;;;;;5046205;28;20192;-83
2021/07/06 10:49:32;;;;;;;0.40;0.10;;;23.20;99.90;;;;;;5028684;28;20103;-83
2021/07/06 10:52:01;;;;;;;1.27;0.13;;;23.60;99.90;;;;;;5028705;28;20099;-82
2021/07/06 10:54:30;;;;;;;0.93;0.10;;;23.20;99.90;;;;;;5039620;28;20030;-82
2021/07/06 10:57:13;;;;;;;1.38;0.13;;;23.50;99.90;;;;;;5042226;28;20468;-83
2021/07/06 10:59:39;;;;;;;2.63;0.10;;;23.60;99.90;;;;;;5028584;28;20044;-82
2021/07/06 11:02:13;;;;;;;0.40;0.10;;;23.40;99.90;;;;;;5044880;28;20033;-83
2021/07/06 11:04:50;;;;;;;3.63;0.15;;;23.10;99.90;;;;;;5044841;28;20033;-82
2021/07/06 11:07:36;;;;;;;3.47;0.10;;;22.40;99.90;;;;;;5028126;28;20433;-82
2021/07/06 11:10:07;;;;;;;0.50;0.10;;;22.30;99.90;;;;;;5044797;28;20033;-81
2021/07/06 11:12:37;;;;;;;1.58;0.10;;;22.50;99.90;;;;;;5045763;28;20056;-81
2021/07/06 11:15:27;;;;;;;3.25;0.17;;;22.40;99.90;;;;;;5011970;28;20133;-82
2021/07/06 11:18:01;;;;;;;2.67;0.10;;;22.00;99.90;;;;;;5044507;28;20105;-82
2021/07/06 11:20:45;;;;;;;1.50;0.10;;;22.30;99.90;;;;;;5044705;28;20033;-82
2021/07/06 11:23:28;;;;;;;3.53;0.20;;;22.50;99.90;;;;;;5028249;28;20026;-82
2021/07/06 11:26:03;;;;;;;2.70;0.20;;;22.60;99.90;;;;;;5045568;28;20125;-82
2021/07/06 11:28:29;;;;;;;2.53;0.20;;;23.40;99.90;;;;;;5044259;28;20030;-83
2021/07/06 11:30:58;;;;;;;1.38;0.10;;;23.70;99.90;;;;;;5027967;28;20029;-83
2021/07/06 11:33:31;;;;;;;1.65;0.10;;;23.40;99.90;;;;;;5027926;28;20061;-82
2021/07/06 11:36:28;;;;;;;4.00;0.25;;;23.70;99.90;;;;;;5011505;28;20095;-82
2021/07/06 11:38:55;;;;;;;1.13;0.10;;;23.40;99.90;;;;;;5015879;28;20037;-82
2021/07/06 11:41:23;;;;;;;0.73;0.10;;;23.10;99.90;;;;;;5043923;28;20036;-83
2021/07/06 11:43:49;;;;;;;2.45;0.32;;;23.30;99.90;;;;;;5027462;28;20033;-82
2021/07/06 11:49:05;;;;;;;1.50;0.10;;;23.40;99.90;;;;;;4993503;28;20098;-82
2021/07/06 11:51:38;;;;;;;4.78;0.15;;;23.50;99.90;;;;;;4971271;28;20042;-82
2021/07/06 11:54:04;;;;;;;1.98;0.20;;;23.90;99.90;;;;;;4987414;28;20080;-82
2021/07/06 11:56:37;;;;;;;3.58;0.10;;;24.30;99.90;;;;;;4986712;28;20106;-82
2021/07/06 11:59:09;;;;;;;1.27;0.20;;;23.80;99.90;;;;;;4987301;28;20054;-84
2021/07/06 12:01:34;;;;;;;1.20;0.10;;;23.80;99.90;;;;;;5003662;28;20045;-81
2021/07/06 12:04:00;;;;;;;1.42;0.20;;;23.70;99.90;;;;;;5003232;28;20030;-82
2021/07/06 12:06:28;;;;;;;2.08;0.13;;;23.20;99.90;;;;;;5003314;28;20057;-82
2021/07/06 12:08:55;;;;;;;2.38;0.10;;;23.10;99.90;;;;;;4987083;28;20541;-80
2021/07/06 12:11:23;;;;;;;1.30;0.10;;;23.40;99.90;;;;;;5003154;28;20034;-81
2021/07/06 12:13:55;;;;;;;1.13;0.13;;;23.00;99.90;;;;;;5002588;28;20076;-81
2021/07/06 12:16:29;;;;;;;2.90;0.10;;;22.50;99.90;;;;;;4986903;28;20124;-81
2021/07/06 12:18:56;;;;;;;3.25;0.45;;;22.50;99.90;;;;;;5003282;28;20077;-81
2021/07/06 12:21:25;;;;;;;4.72;0.20;;;22.80;99.90;;;;;;4986996;28;20034;-80
2021/07/06 12:23:53;;;;;;;;;;;23.40;99.90;;;;;;5003438;28;20038;-82
2021/07/06 12:26:19;;;;;;;1.23;0.10;;;23.90;99.90;;;;;;5017864;28;19917;-81
2021/07/06 12:28:45;;;;;;;2.50;0.20;;;24.00;99.90;;;;;;5043346;28;20072;-81
2021/07/06 12:31:28;;;;;;;1.45;0.10;;;23.50;99.90;;;;;;5043590;28;20033;-82
2021/07/06 12:34:14;;;;;;;2.53;0.28;;;24.00;99.90;;;;;;5043518;28;20037;-82
2021/07/06 12:36:39;;;;;;;0.85;0.10;;;23.80;99.90;;;;;;5026715;28;20080;-82
2021/07/06 12:39:22;;;;;;;2.08;0.10;;;23.80;99.90;;;;;;5043512;28;20059;-83
2021/07/06 12:42:00;;;;;;;2.20;0.20;;;23.30;99.90;;;;;;5043273;28;20033;-81
2021/07/06 12:44:45;;;;;;;2.65;0.20;;;23.50;99.90;;;;;;5026782;28;20044;-81
2021/07/06 12:47:15;;;;;;;1.65;0.10;;;23.50;99.90;;;;;;5043078;28;20109;-80
2021/07/06 12:50:00;;;;;;;3.33;0.20;;;23.50;99.90;;;;;;5043097;28;20064;-82
2021/07/06 12:52:41;;;;;;;3.88;0.13;;;23.10;99.90;;;;;;5043343;28;20037;-81
2021/07/06 12:55:11;;;;;;;3.40;0.13;;;23.40;99.90;;;;;;5042873;28;20072;-82